sensor_id;sensor_type;location;lat;lon;timestamp;pressure;altitude;pressure_sealevel;temperature;humidity
77793;BME280;66983;51.438;5.438;2023-01-25T00:00:45;103660.56;;;1.72;74.92
77793;BME280;66983;51.438;5.438;2023-01-25T00:03:11;103656.84;;;1.66;74.76
77793;BME280;66983;51.438;5.438;2023-01-25T00:05:36;103646.81;;;1.58;75.50
77793;BME280;66983;51.438;5.438;2023-01-25T00:08:02;103651.84;;;1.52;74.62
77793;BME280;66983;51.438;5.438;2023-01-25T00:10:28;103644.03;;;1.53;75.25
77793;BME280;66983;51.438;5.438;2023-01-25T00:12:55;103649.38;;;1.56;75.70
77793;BME280;66983;51.438;5.438;2023-01-25T00:15:22;103645.88;;;1.56;75.64
77793;BME280;66983;51.438;5.438;2023-01-25T00:17:47;103642.34;;;1.55;73.70
77793;BME280;66983;51.438;5.438;2023-01-25T00:20:13;103644.13;;;1.56;75.08
77793;BME280;66983;51.438;5.438;2023-01-25T00:22:39;103640.78;;;1.60;74.52
77793;BME280;66983;51.438;5.438;2023-01-25T00:25:05;103643.19;;;1.54;75.45
77793;BME280;66983;51.438;5.438;2023-01-25T00:27:30;103643.94;;;1.52;75.31
77793;BME280;66983;51.438;5.438;2023-01-25T00:29:56;103644.84;;;1.52;74.85
77793;BME280;66983;51.438;5.438;2023-01-25T00:34:48;103641.47;;;1.55;74.80
77793;BME280;66983;51.438;5.438;2023-01-25T00:37:36;103644.72;;;1.49;75.39
77793;BME280;66983;51.438;5.438;2023-01-25T00:40:04;103637.44;;;1.44;74.83
77793;BME280;66983;51.438;5.438;2023-01-25T00:42:30;103633.94;;;1.43;75.65
77793;BME280;66983;51.438;5.438;2023-01-25T00:44:56;103639.38;;;1.48;76.82
77793;BME280;66983;51.438;5.438;2023-01-25T00:47:21;103640.28;;;1.48;75.59
77793;BME280;66983;51.438;5.438;2023-01-25T00:49:47;103634.81;;;1.44;74.99
77793;BME280;66983;51.438;5.438;2023-01-25T00:52:13;103636.69;;;1.46;75.75
77793;BME280;66983;51.438;5.438;2023-01-25T00:54:39;103630.34;;;1.41;76.43
77793;BME280;66983;51.438;5.438;2023-01-25T00:57:06;103630.47;;;1.44;76.38
77793;BME280;66983;51.438;5.438;2023-01-25T00:59:32;103634.00;;;1.45;75.45
77793;BME280;66983;51.438;5.438;2023-01-25T01:02:00;103630.47;;;1.44;76.37
77793;BME280;66983;51.438;5.438;2023-01-25T01:04:27;103622.59;;;1.44;76.39
77793;BME280;66983;51.438;5.438;2023-01-25T01:06:53;103622.66;;;1.46;76.46
77793;BME280;66983;51.438;5.438;2023-01-25T01:09:20;103621.56;;;1.41;75.70
77793;BME280;66983;51.438;5.438;2023-01-25T01:11:47;103619.75;;;1.40;75.27
77793;BME280;66983;51.438;5.438;2023-01-25T01:14:13;103619.00;;;1.42;75.77
77793;BME280;66983;51.438;5.438;2023-01-25T01:16:39;103617.25;;;1.43;75.80
77793;BME280;66983;51.438;5.438;2023-01-25T01:19:05;103620.72;;;1.42;75.22
77793;BME280;66983;51.438;5.438;2023-01-25T01:21:31;103612.50;;;1.34;75.61
77793;BME280;66983;51.438;5.438;2023-01-25T01:23:57;103617.06;;;1.38;75.88
77793;BME280;66983;51.438;5.438;2023-01-25T01:26:23;103618.84;;;1.39;75.65
77793;BME280;66983;51.438;5.438;2023-01-25T01:28:49;103620.50;;;1.37;75.59
77793;BME280;66983;51.438;5.438;2023-01-25T01:31:21;103610.84;;;1.36;75.97
77793;BME280;66983;51.438;5.438;2023-01-25T01:33:56;103612.78;;;1.40;75.53
77793;BME280;66983;51.438;5.438;2023-01-25T01:36:25;103612.78;;;1.40;75.31
77793;BME280;66983;51.438;5.438;2023-01-25T01:38:52;103615.25;;;1.37;75.53
77793;BME280;66983;51.438;5.438;2023-01-25T01:41:18;103618.72;;;1.36;76.53
77793;BME280;66983;51.438;5.438;2023-01-25T01:43:45;103613.47;;;1.36;75.55
77793;BME280;66983;51.438;5.438;2023-01-25T01:46:20;103618.03;;;1.40;75.69
77793;BME280;66983;51.438;5.438;2023-01-25T01:48:58;103612.84;;;1.42;76.94
77793;BME280;66983;51.438;5.438;2023-01-25T01:54:15;103610.84;;;1.36;75.58
77793;BME280;66983;51.438;5.438;2023-01-25T01:56:59;103618.84;;;1.39;75.96
77793;BME280;66983;51.438;5.438;2023-01-25T01:59:35;103620.78;;;1.43;75.22
77793;BME280;66983;51.438;5.438;2023-01-25T02:02:02;103611.94;;;1.41;75.40
77793;BME280;66983;51.438;5.438;2023-01-25T02:04:29;103613.66;;;1.41;75.81
77793;BME280;66983;51.438;5.438;2023-01-25T02:07:05;103617.13;;;1.40;75.29
77793;BME280;66983;51.438;5.438;2023-01-25T02:09:36;103614.28;;;1.35;75.65
77793;BME280;66983;51.438;5.438;2023-01-25T02:12:03;103613.31;;;1.33;75.48
77793;BME280;66983;51.438;5.438;2023-01-25T02:14:30;103610.59;;;1.30;76.04
77793;BME280;66983;51.438;5.438;2023-01-25T02:16:59;103605.28;;;1.28;76.04
77793;BME280;66983;51.438;5.438;2023-01-25T02:22:32;103610.47;;;1.27;76.09
77793;BME280;66983;51.438;5.438;2023-01-25T02:25:07;103612.19;;;1.26;76.29
77793;BME280;66983;51.438;5.438;2023-01-25T02:27:42;103612.19;;;1.26;76.84
77793;BME280;66983;51.438;5.438;2023-01-25T02:30:10;103603.53;;;1.29;75.99
77793;BME280;66983;51.438;5.438;2023-01-25T02:32:36;103600.19;;;1.33;75.74
77793;BME280;66983;51.438;5.438;2023-01-25T02:35:03;103602.97;;;1.36;75.22
77793;BME280;66983;51.438;5.438;2023-01-25T02:37:29;103595.00;;;1.34;75.83
77793;BME280;66983;51.438;5.438;2023-01-25T02:39:55;103595.13;;;1.38;75.29
77793;BME280;66983;51.438;5.438;2023-01-25T02:42:23;103589.94;;;1.39;75.34
77793;BME280;66983;51.438;5.438;2023-01-25T02:44:50;103579.25;;;1.34;75.88
77793;BME280;66983;51.438;5.438;2023-01-25T02:47:16;103595.22;;;1.39;76.25
77793;BME280;66983;51.438;5.438;2023-01-25T02:49:43;103583.59;;;1.34;75.95
77793;BME280;66983;51.438;5.438;2023-01-25T02:52:08;103589.56;;;1.30;75.50
77793;BME280;66983;51.438;5.438;2023-01-25T02:54:34;103580.97;;;1.34;76.33
77793;BME280;66983;51.438;5.438;2023-01-25T02:57:03;103575.53;;;1.29;75.83
77793;BME280;66983;51.438;5.438;2023-01-25T02:59:38;103580.91;;;1.32;75.96
77793;BME280;66983;51.438;5.438;2023-01-25T03:02:03;103580.13;;;1.35;76.47
77793;BME280;66983;51.438;5.438;2023-01-25T03:04:30;103582.84;;;1.36;76.16
77793;BME280;66983;51.438;5.438;2023-01-25T03:06:55;103589.88;;;1.38;76.45
77793;BME280;66983;51.438;5.438;2023-01-25T03:09:21;103587.25;;;1.38;76.13
77793;BME280;66983;51.438;5.438;2023-01-25T03:11:48;103588.84;;;1.34;75.82
77793;BME280;66983;51.438;5.438;2023-01-25T03:14:16;103581.69;;;1.30;76.48
77793;BME280;66983;51.438;5.438;2023-01-25T03:16:41;103579.06;;;1.30;75.32
77793;BME280;66983;51.438;5.438;2023-01-25T03:19:07;103567.78;;;1.32;75.76
77793;BME280;66983;51.438;5.438;2023-01-25T03:21:32;103568.66;;;1.33;75.87
77793;BME280;66983;51.438;5.438;2023-01-25T03:24:00;103568.81;;;1.36;74.94
77793;BME280;66983;51.438;5.438;2023-01-25T03:26:33;103563.41;;;1.33;74.95
77793;BME280;66983;51.438;5.438;2023-01-25T03:29:20;103563.88;;;1.23;75.42
77793;BME280;66983;51.438;5.438;2023-01-25T03:31:47;103551.56;;;1.22;75.80
77793;BME280;66983;51.438;5.438;2023-01-25T03:34:14;103559.44;;;1.22;74.78
77793;BME280;66983;51.438;5.438;2023-01-25T03:36:41;103550.53;;;1.18;75.60
77793;BME280;66983;51.438;5.438;2023-01-25T03:39:06;103547.28;;;1.24;75.89
77793;BME280;66983;51.438;5.438;2023-01-25T03:41:38;103547.34;;;1.25;75.28
77793;BME280;66983;51.438;5.438;2023-01-25T03:44:07;103547.16;;;1.21;75.47
77793;BME280;66983;51.438;5.438;2023-01-25T03:46:39;103550.66;;;1.21;75.09
77793;BME280;66983;51.438;5.438;2023-01-25T03:49:06;103543.28;;;1.13;75.23
77793;BME280;66983;51.438;5.438;2023-01-25T03:51:32;103548.19;;;1.05;75.96
77793;BME280;66983;51.438;5.438;2023-01-25T03:53:58;103543.75;;;1.04;76.23
77793;BME280;66983;51.438;5.438;2023-01-25T03:56:24;103551.66;;;1.04;75.76
77793;BME280;66983;51.438;5.438;2023-01-25T03:59:00;103549.09;;;1.06;75.30
77793;BME280;66983;51.438;5.438;2023-01-25T04:01:26;103550.81;;;1.05;75.85
77793;BME280;66983;51.438;5.438;2023-01-25T04:03:52;103558.38;;;0.97;75.91
77793;BME280;66983;51.438;5.438;2023-01-25T04:06:17;103545.81;;;0.90;76.25
77793;BME280;66983;51.438;5.438;2023-01-25T04:08:43;103551.94;;;0.91;76.43
77793;BME280;66983;51.438;5.438;2023-01-25T04:11:09;103550.09;;;0.88;77.19
77793;BME280;66983;51.438;5.438;2023-01-25T04:13:37;103548.56;;;0.93;77.23
77793;BME280;66983;51.438;5.438;2023-01-25T04:16:07;103538.13;;;0.95;75.96
77793;BME280;66983;51.438;5.438;2023-01-25T04:18:55;103538.22;;;0.96;76.95
77793;BME280;66983;51.438;5.438;2023-01-25T04:21:20;103543.31;;;0.93;76.91
77793;BME280;66983;51.438;5.438;2023-01-25T04:23:46;103529.34;;;0.94;76.20
77793;BME280;66983;51.438;5.438;2023-01-25T04:26:13;103534.00;;;1.00;76.45
77793;BME280;66983;51.438;5.438;2023-01-25T04:28:40;103537.38;;;0.97;75.84
77793;BME280;66983;51.438;5.438;2023-01-25T04:31:06;103534.88;;;1.00;76.68
77793;BME280;66983;51.438;5.438;2023-01-25T04:33:37;103524.38;;;1.00;76.45
77793;BME280;66983;51.438;5.438;2023-01-25T04:36:03;103532.25;;;1.00;76.32
77793;BME280;66983;51.438;5.438;2023-01-25T04:38:29;103530.31;;;0.96;75.91
77793;BME280;66983;51.438;5.438;2023-01-25T04:40:55;103531.03;;;0.92;75.76
77793;BME280;66983;51.438;5.438;2023-01-25T04:43:21;103524.44;;;0.83;75.67
77793;BME280;66983;51.438;5.438;2023-01-25T04:45:52;103527.84;;;0.80;76.12
77793;BME280;66983;51.438;5.438;2023-01-25T04:48:23;103525.16;;;0.79;76.99
77793;BME280;66983;51.438;5.438;2023-01-25T04:50:54;103531.13;;;0.75;76.87
77793;BME280;66983;51.438;5.438;2023-01-25T04:53:21;103527.66;;;0.76;76.44
77793;BME280;66983;51.438;5.438;2023-01-25T04:55:47;103512.69;;;0.73;76.75
77793;BME280;66983;51.438;5.438;2023-01-25T04:58:13;103519.91;;;0.79;77.73
77793;BME280;66983;51.438;5.438;2023-01-25T05:00:39;103515.50;;;0.78;76.78
77793;BME280;66983;51.438;5.438;2023-01-25T05:03:05;103512.88;;;0.78;76.36
77793;BME280;66983;51.438;5.438;2023-01-25T05:05:31;103509.34;;;0.77;76.44
77793;BME280;66983;51.438;5.438;2023-01-25T05:07:59;103507.44;;;0.73;76.39
77793;BME280;66983;51.438;5.438;2023-01-25T05:10:25;103502.19;;;0.73;77.35
77793;BME280;66983;51.438;5.438;2023-01-25T05:13:09;103503.16;;;0.75;77.20
77793;BME280;66983;51.438;5.438;2023-01-25T05:15:36;103496.25;;;0.77;76.30
77793;BME280;66983;51.438;5.438;2023-01-25T05:18:02;103496.16;;;0.76;77.02
77793;BME280;66983;51.438;5.438;2023-01-25T05:20:28;103500.53;;;0.75;77.00
77793;BME280;66983;51.438;5.438;2023-01-25T05:22:54;103496.25;;;0.77;77.19
77793;BME280;66983;51.438;5.438;2023-01-25T05:25:20;103501.34;;;0.74;76.72
77793;BME280;66983;51.438;5.438;2023-01-25T05:28:05;103502.56;;;0.82;77.09
77793;BME280;66983;51.438;5.438;2023-01-25T05:31:02;103498.88;;;0.77;77.56
77793;BME280;66983;51.438;5.438;2023-01-25T05:33:29;103489.28;;;0.79;77.70
77793;BME280;66983;51.438;5.438;2023-01-25T05:35:55;103496.63;;;0.86;76.20
77793;BME280;66983;51.438;5.438;2023-01-25T05:38:23;103492.41;;;0.90;76.58
77793;BME280;66983;51.438;5.438;2023-01-25T05:40:49;103497.59;;;0.88;76.17
77793;BME280;66983;51.438;5.438;2023-01-25T05:43:15;103497.44;;;0.85;76.13
77793;BME280;66983;51.438;5.438;2023-01-25T05:45:40;103493.84;;;0.83;76.99
77793;BME280;66983;51.438;5.438;2023-01-25T05:48:07;103495.72;;;0.86;76.75
77793;BME280;66983;51.438;5.438;2023-01-25T05:50:34;103494.75;;;0.84;76.47
77793;BME280;66983;51.438;5.438;2023-01-25T05:53:03;103493.72;;;0.80;76.76
77793;BME280;66983;51.438;5.438;2023-01-25T05:55:29;103491.75;;;0.75;77.34
77793;BME280;66983;51.438;5.438;2023-01-25T05:57:59;103491.53;;;0.70;77.71
77793;BME280;66983;51.438;5.438;2023-01-25T06:00:24;103495.28;;;0.75;78.14
77793;BME280;66983;51.438;5.438;2023-01-25T06:02:50;103488.28;;;0.76;77.12
77793;BME280;66983;51.438;5.438;2023-01-25T06:05:20;103491.91;;;0.79;77.60
77793;BME280;66983;51.438;5.438;2023-01-25T06:07:45;103483.13;;;0.77;77.24
77793;BME280;66983;51.438;5.438;2023-01-25T06:10:12;103486.66;;;0.79;76.96
77793;BME280;66983;51.438;5.438;2023-01-25T06:12:37;103488.22;;;0.74;77.87
77793;BME280;66983;51.438;5.438;2023-01-25T06:15:05;103488.78;;;0.67;77.43
77793;BME280;66983;51.438;5.438;2023-01-25T06:17:31;103480.91;;;0.67;78.19
77793;BME280;66983;51.438;5.438;2023-01-25T06:20:06;103488.09;;;0.71;78.13
77793;BME280;66983;51.438;5.438;2023-01-25T06:22:34;103492.66;;;0.75;77.35
77793;BME280;66983;51.438;5.438;2023-01-25T06:25:00;103482.97;;;0.74;77.52
77793;BME280;66983;51.438;5.438;2023-01-25T06:27:27;103486.16;;;0.67;78.12
77793;BME280;66983;51.438;5.438;2023-01-25T06:29:52;103481.72;;;0.66;77.44
77793;BME280;66983;51.438;5.438;2023-01-25T06:32:18;103484.22;;;0.63;77.35
77793;BME280;66983;51.438;5.438;2023-01-25T06:34:43;103479.19;;;0.67;78.99
77793;BME280;66983;51.438;5.438;2023-01-25T06:37:15;103480.91;;;0.67;77.77
77793;BME280;66983;51.438;5.438;2023-01-25T06:39:41;103482.50;;;0.63;77.92
77793;BME280;66983;51.438;5.438;2023-01-25T06:42:06;103483.38;;;0.64;77.19
77793;BME280;66983;51.438;5.438;2023-01-25T06:44:32;103481.53;;;0.61;77.34
77793;BME280;66983;51.438;5.438;2023-01-25T06:46:59;103478.84;;;0.60;77.78
77793;BME280;66983;51.438;5.438;2023-01-25T06:49:24;103483.03;;;0.56;77.61
77793;BME280;66983;51.438;5.438;2023-01-25T06:51:50;103487.66;;;0.62;77.06
77793;BME280;66983;51.438;5.438;2023-01-25T06:54:15;103492.31;;;0.67;77.83
77793;BME280;66983;51.438;5.438;2023-01-25T06:56:41;103483.47;;;0.65;77.96
77793;BME280;66983;51.438;5.438;2023-01-25T06:59:06;103478.50;;;0.72;77.54
77793;BME280;66983;51.438;5.438;2023-01-25T07:01:32;103476.75;;;0.72;76.65
77793;BME280;66983;51.438;5.438;2023-01-25T07:03:58;103478.50;;;0.72;76.92
77793;BME280;66983;51.438;5.438;2023-01-25T07:06:25;103474.75;;;0.66;76.79
77793;BME280;66983;51.438;5.438;2023-01-25T07:08:51;103472.63;;;0.58;77.46
77793;BME280;66983;51.438;5.438;2023-01-25T07:11:17;103473.44;;;0.57;76.79
77793;BME280;66983;51.438;5.438;2023-01-25T07:13:44;103479.66;;;0.59;77.25
77793;BME280;66983;51.438;5.438;2023-01-25T07:16:13;103478.84;;;0.60;77.98
77793;BME280;66983;51.438;5.438;2023-01-25T07:18:40;103483.09;;;0.58;77.69
77793;BME280;66983;51.438;5.438;2023-01-25T07:21:09;103479.66;;;0.59;77.33
77793;BME280;66983;51.438;5.438;2023-01-25T07:23:36;103482.28;;;0.59;77.01
77793;BME280;66983;51.438;5.438;2023-01-25T07:26:04;103477.03;;;0.59;77.61
77793;BME280;66983;51.438;5.438;2023-01-25T07:28:31;103477.72;;;0.55;76.96
77793;BME280;66983;51.438;5.438;2023-01-25T07:31:04;103475.16;;;0.56;78.05
77793;BME280;66983;51.438;5.438;2023-01-25T07:33:31;103472.47;;;0.55;76.74
77793;BME280;66983;51.438;5.438;2023-01-25T07:36:01;103471.72;;;0.57;78.03
77793;BME280;66983;51.438;5.438;2023-01-25T07:38:27;103474.09;;;0.51;77.44
77793;BME280;66983;51.438;5.438;2023-01-25T07:40:53;103468.63;;;0.47;76.94
77793;BME280;66983;51.438;5.438;2023-01-25T07:43:18;103466.78;;;0.44;78.15
77793;BME280;66983;51.438;5.438;2023-01-25T07:45:45;103461.31;;;0.40;77.15
77793;BME280;66983;51.438;5.438;2023-01-25T07:48:15;103465.88;;;0.44;77.42
77793;BME280;66983;51.438;5.438;2023-01-25T07:50:41;103461.16;;;0.37;78.05
77793;BME280;66983;51.438;5.438;2023-01-25T07:53:07;103465.53;;;0.36;77.56
77793;BME280;66983;51.438;5.438;2023-01-25T07:55:33;103454.13;;;0.36;77.99
77793;BME280;66983;51.438;5.438;2023-01-25T07:57:58;103459.38;;;0.36;77.84
77793;BME280;66983;51.438;5.438;2023-01-25T08:00:25;103443.50;;;0.32;78.36
77793;BME280;66983;51.438;5.438;2023-01-25T08:02:51;103457.03;;;0.42;77.74
77793;BME280;66983;51.438;5.438;2023-01-25T08:05:18;103464.00;;;0.41;77.43
77793;BME280;66983;51.438;5.438;2023-01-25T08:07:45;103452.53;;;0.39;77.97
77793;BME280;66983;51.438;5.438;2023-01-25T08:10:11;103457.03;;;0.42;77.82
77793;BME280;66983;51.438;5.438;2023-01-25T08:12:36;103454.34;;;0.40;78.35
77793;BME280;66983;51.438;5.438;2023-01-25T08:15:03;103457.78;;;0.39;78.57
77793;BME280;66983;51.438;5.438;2023-01-25T08:17:29;103456.75;;;0.36;77.33
77793;BME280;66983;51.438;5.438;2023-01-25T08:19:58;103450.69;;;0.37;78.00
77793;BME280;66983;51.438;5.438;2023-01-25T08:22:24;103452.19;;;0.31;78.75
77793;BME280;66983;51.438;5.438;2023-01-25T08:24:51;103450.47;;;0.32;78.37
77793;BME280;66983;51.438;5.438;2023-01-25T08:27:16;103451.22;;;0.29;78.09
77793;BME280;66983;51.438;5.438;2023-01-25T08:29:42;103452.34;;;0.34;78.89
77793;BME280;66983;51.438;5.438;2023-01-25T08:32:07;103461.03;;;0.33;77.74
77793;BME280;66983;51.438;5.438;2023-01-25T08:34:33;103447.31;;;0.20;77.84
77793;BME280;66983;51.438;5.438;2023-01-25T08:36:59;103452.63;;;0.21;78.34
77793;BME280;66983;51.438;5.438;2023-01-25T08:39:25;103445.78;;;0.25;78.49
77793;BME280;66983;51.438;5.438;2023-01-25T08:41:51;103450.91;;;0.22;77.68
77793;BME280;66983;51.438;5.438;2023-01-25T08:44:17;103448.28;;;0.22;76.73
77793;BME280;66983;51.438;5.438;2023-01-25T08:46:46;103443.03;;;0.22;77.58
77793;BME280;66983;51.438;5.438;2023-01-25T08:49:12;103440.28;;;0.19;77.52
77793;BME280;66983;51.438;5.438;2023-01-25T08:51:38;103444.41;;;0.14;77.94
77793;BME280;66983;51.438;5.438;2023-01-25T08:54:10;103445.59;;;0.20;78.40
77793;BME280;66983;51.438;5.438;2023-01-25T08:56:37;103451.97;;;0.27;78.27
77793;BME280;66983;51.438;5.438;2023-01-25T08:59:03;103444.31;;;0.31;77.57
77793;BME280;66983;51.438;5.438;2023-01-25T09:01:30;103451.03;;;0.25;78.19
77793;BME280;66983;51.438;5.438;2023-01-25T09:03:57;103439.59;;;0.23;78.32
77793;BME280;66983;51.438;5.438;2023-01-25T09:06:22;103435.78;;;0.16;77.51
77793;BME280;66983;51.438;5.438;2023-01-25T09:08:48;103436.75;;;0.18;78.07
77793;BME280;66983;51.438;5.438;2023-01-25T09:11:21;103426.41;;;0.21;78.37
77793;BME280;66983;51.438;5.438;2023-01-25T09:13:47;103429.16;;;0.24;78.49
77793;BME280;66983;51.438;5.438;2023-01-25T09:16:16;103421.97;;;0.20;77.80
77793;BME280;66983;51.438;5.438;2023-01-25T09:18:43;103416.16;;;0.27;78.75
77793;BME280;66983;51.438;5.438;2023-01-25T09:21:12;103418.31;;;0.36;78.81
77793;BME280;66983;51.438;5.438;2023-01-25T09:23:39;103420.16;;;0.39;78.55
77793;BME280;66983;51.438;5.438;2023-01-25T09:26:05;103414.94;;;0.39;77.70
77793;BME280;66983;51.438;5.438;2023-01-25T09:28:32;103427.06;;;0.37;77.72
77793;BME280;66983;51.438;5.438;2023-01-25T09:31:04;103419.88;;;0.32;78.47
77793;BME280;66983;51.438;5.438;2023-01-25T09:33:51;103401.75;;;0.18;77.80
77793;BME280;66983;51.438;5.438;2023-01-25T09:36:17;103416.31;;;0.30;78.04
77793;BME280;66983;51.438;5.438;2023-01-25T09:38:43;103415.25;;;0.27;77.63
77793;BME280;66983;51.438;5.438;2023-01-25T09:41:17;103417.28;;;0.32;78.47
77793;BME280;66983;51.438;5.438;2023-01-25T09:43:55;103421.06;;;0.39;78.63
77793;BME280;66983;51.438;5.438;2023-01-25T09:52:37;103413.88;;;0.35;78.42
77793;BME280;66983;51.438;5.438;2023-01-25T09:55:14;103413.13;;;0.38;76.94
77793;BME280;66983;51.438;5.438;2023-01-25T09:57:44;103410.38;;;0.34;77.77
77793;BME280;66983;51.438;5.438;2023-01-25T10:00:14;103413.06;;;0.36;77.50
77793;BME280;66983;51.438;5.438;2023-01-25T10:02:49;103412.09;;;0.34;77.32
77793;BME280;66983;51.438;5.438;2023-01-25T10:05:31;103420.16;;;0.39;78.23
77793;BME280;66983;51.438;5.438;2023-01-25T10:08:11;103420.44;;;0.45;77.93
77793;BME280;66983;51.438;5.438;2023-01-25T10:10:43;103411.75;;;0.46;77.54
77793;BME280;66983;51.438;5.438;2023-01-25T10:13:13;103411.63;;;0.43;76.76
77793;BME280;66983;51.438;5.438;2023-01-25T10:15:44;103407.88;;;0.38;76.99
77793;BME280;66983;51.438;5.438;2023-01-25T10:18:43;103401.66;;;0.36;78.26
77793;BME280;66983;51.438;5.438;2023-01-25T10:21:40;103397.31;;;0.36;76.87
77793;BME280;66983;51.438;5.438;2023-01-25T10:30:33;103390.72;;;0.25;77.70
77793;BME280;66983;51.438;5.438;2023-01-25T10:33:10;103399.34;;;0.22;77.56
77793;BME280;66983;51.438;5.438;2023-01-25T10:35:43;103392.31;;;0.21;78.47
77793;BME280;66983;51.438;5.438;2023-01-25T10:38:29;103390.75;;;0.26;78.30
77793;BME280;66983;51.438;5.438;2023-01-25T10:43:32;103375.25;;;0.12;77.86
77793;BME280;66983;51.438;5.438;2023-01-25T10:45:57;103368.00;;;0.06;77.95
77793;BME280;66983;51.438;5.438;2023-01-25T10:48:27;103361.13;;;0.08;77.83
77793;BME280;66983;51.438;5.438;2023-01-25T10:50:55;103356.78;;;0.09;77.59
77793;BME280;66983;51.438;5.438;2023-01-25T10:56:03;103341.59;;;0.21;77.45
77793;BME280;66983;51.438;5.438;2023-01-25T10:58:42;103326.75;;;0.21;77.66
77793;BME280;66983;51.438;5.438;2023-01-25T11:01:24;103324.13;;;0.21;77.36
77793;BME280;66983;51.438;5.438;2023-01-25T11:03:50;103327.91;;;0.28;77.62
77793;BME280;66983;51.438;5.438;2023-01-25T11:06:34;103318.56;;;0.34;77.87
77793;BME280;66983;51.438;5.438;2023-01-25T11:09:28;103320.38;;;0.36;77.71
77793;BME280;66983;51.438;5.438;2023-01-25T11:12:02;103316.91;;;0.37;77.61
77793;BME280;66983;51.438;5.438;2023-01-25T11:14:31;103312.44;;;0.34;78.11
77793;BME280;66983;51.438;5.438;2023-01-25T11:16:58;103303.72;;;0.35;77.22
77793;BME280;66983;51.438;5.438;2023-01-25T11:21:57;103291.97;;;0.46;78.21
77793;BME280;66983;51.438;5.438;2023-01-25T11:24:32;103294.00;;;0.53;77.40
77793;BME280;66983;51.438;5.438;2023-01-25T11:29:42;103279.88;;;0.50;77.79
77793;BME280;66983;51.438;5.438;2023-01-25T11:32:20;103286.72;;;0.46;77.43
77793;BME280;66983;51.438;5.438;2023-01-25T11:34:49;103270.09;;;0.46;78.10
77793;BME280;66983;51.438;5.438;2023-01-25T11:40:33;103258.84;;;0.48;77.92
77793;BME280;66983;51.438;5.438;2023-01-25T11:46:01;103236.91;;;0.46;77.37
77793;BME280;66983;51.438;5.438;2023-01-25T12:05:00;103200.75;;;0.39;77.87
77793;BME280;66983;51.438;5.438;2023-01-25T12:07:52;103187.63;;;0.39;77.58
77793;BME280;66983;51.438;5.438;2023-01-25T12:19:13;103163.84;;;0.34;78.08
77793;BME280;66983;51.438;5.438;2023-01-25T12:24:21;103153.34;;;0.34;78.16
77793;BME280;66983;51.438;5.438;2023-01-25T12:29:42;103131.97;;;0.24;76.91
77793;BME280;66983;51.438;5.438;2023-01-25T12:32:23;103129.03;;;0.16;77.57
77793;BME280;66983;51.438;5.438;2023-01-25T12:35:12;103126.47;;;0.18;77.21
77793;BME280;66983;51.438;5.438;2023-01-25T12:37:44;103119.69;;;0.23;77.98
77793;BME280;66983;51.438;5.438;2023-01-25T12:40:20;103117.19;;;0.26;77.61
77793;BME280;66983;51.438;5.438;2023-01-25T12:42:52;103111.88;;;0.24;77.53
77793;BME280;66983;51.438;5.438;2023-01-25T12:45:24;103106.84;;;0.30;77.99
77793;BME280;66983;51.438;5.438;2023-01-25T12:47:59;103097.19;;;0.29;78.21
77793;BME280;66983;51.438;5.438;2023-01-25T12:50:39;103089.44;;;0.32;77.50
77793;BME280;66983;51.438;5.438;2023-01-25T12:56:59;103086.88;;;0.34;77.87
77793;BME280;66983;51.438;5.438;2023-01-25T12:59:42;103073.59;;;0.29;78.87
77793;BME280;66983;51.438;5.438;2023-01-25T13:02:24;103068.19;;;0.25;77.87
77793;BME280;66983;51.438;5.438;2023-01-25T13:07:40;103068.13;;;0.23;77.85
77793;BME280;66983;51.438;5.438;2023-01-25T13:12:58;103056.44;;;0.15;79.01
77793;BME280;66983;51.438;5.438;2023-01-25T13:18:00;103045.81;;;0.12;78.59
77793;BME280;66983;51.438;5.438;2023-01-25T13:25:51;103033.22;;;0.24;78.62
77793;BME280;66983;51.438;5.438;2023-01-25T13:28:44;103033.22;;;0.24;79.02
77793;BME280;66983;51.438;5.438;2023-01-25T13:34:09;103035.97;;;0.29;78.44
77793;BME280;66983;51.438;5.438;2023-01-25T13:42:03;103027.00;;;0.22;79.15
77793;BME280;66983;51.438;5.438;2023-01-25T13:44:32;103010.28;;;0.19;78.96
77793;BME280;66983;51.438;5.438;2023-01-25T13:47:04;103013.78;;;0.19;78.20
77793;BME280;66983;51.438;5.438;2023-01-25T13:49:51;103010.22;;;0.17;78.13
77793;BME280;66983;51.438;5.438;2023-01-25T13:52:20;103005.97;;;0.21;78.11
77793;BME280;66983;51.438;5.438;2023-01-25T13:54:48;103005.19;;;0.23;77.41
77793;BME280;66983;51.438;5.438;2023-01-25T13:57:21;103009.25;;;0.15;78.16
77793;BME280;66983;51.438;5.438;2023-01-25T13:59:47;103003.00;;;0.12;78.70
77793;BME280;66983;51.438;5.438;2023-01-25T14:02:19;102994.34;;;0.14;78.43
77793;BME280;66983;51.438;5.438;2023-01-25T14:04:48;102996.19;;;0.17;77.80
77793;BME280;66983;51.438;5.438;2023-01-25T14:07:21;102992.69;;;0.16;77.75
77793;BME280;66983;51.438;5.438;2023-01-25T14:09:47;102987.25;;;0.12;78.08
77793;BME280;66983;51.438;5.438;2023-01-25T14:12:30;102973.38;;;0.14;78.02
77793;BME280;66983;51.438;5.438;2023-01-25T14:15:30;102989.28;;;0.19;77.59
77793;BME280;66983;51.438;5.438;2023-01-25T14:18:31;102985.00;;;0.21;77.84
77793;BME280;66983;51.438;5.438;2023-01-25T14:21:18;102991.09;;;0.20;77.42
77793;BME280;66983;51.438;5.438;2023-01-25T14:23:45;102992.69;;;0.16;76.88
77793;BME280;66983;51.438;5.438;2023-01-25T14:26:25;102998.69;;;0.14;77.96
77793;BME280;66983;51.438;5.438;2023-01-25T14:28:56;102997.03;;;0.16;78.49
77793;BME280;66983;51.438;5.438;2023-01-25T14:33:49;102997.94;;;0.16;77.69
77793;BME280;66983;51.438;5.438;2023-01-25T14:36:20;102992.03;;;0.22;78.32
77793;BME280;66983;51.438;5.438;2023-01-25T14:38:46;102989.56;;;0.26;77.54
77793;BME280;66983;51.438;5.438;2023-01-25T14:41:35;102986.09;;;0.27;77.42
77793;BME280;66983;51.438;5.438;2023-01-25T14:44:04;102991.13;;;0.21;76.96
77793;BME280;66983;51.438;5.438;2023-01-25T14:46:32;102982.56;;;0.25;77.67
77793;BME280;66983;51.438;5.438;2023-01-25T14:49:18;102977.19;;;0.22;77.57